N459BE K6S0-MYTC
Flight info
| Callsign | N459BE |
|---|---|
| Flight time | 4h 17m |
| Altitude | 45000 |
| Route | GAITZ RODIE EAR DOSOA PLIED ICAVY ROHUN NOLLE JOLTS BR1L ZFP BR65V LAUTH |
| Aircraft | GLF5/M-SDE2E3FGHIRWXY/S |
Departure
| Time | 2026-05-09 00:45 |
|---|---|
| Airport | Big Timber Airport (K6S0) |
Arrival
| Time | 2026-05-09 05:03 |
|---|---|
| Airport | Torch Cay Airport (MYTC) |
| Time | Latitude | Longitude | Altitude | Speed | Heading |
|---|---|---|---|---|---|
| 2026-05-09 00:16 | 45.80866 | -109.97373 | 4476 ft | 0 kts | 92° |
| 2026-05-09 00:41 | 45.80864 | -109.97369 | 4476 ft | 1 kts | 115° |
| 2026-05-09 00:41 | 45.80841 | -109.97363 | 4476 ft | 3 kts | 177° |
| 2026-05-09 00:42 | 45.80834 | -109.97362 | 4476 ft | 0 kts | 174° |
| 2026-05-09 00:42 | 45.80823 | -109.97357 | 4476 ft | 4 kts | 163° |
| 2026-05-09 00:42 | 45.80793 | -109.97304 | 4475 ft | 11 kts | 78° |
| 2026-05-09 00:42 | 45.80823 | -109.97175 | 4471 ft | 14 kts | 73° |
| 2026-05-09 00:43 | 45.80851 | -109.97039 | 4466 ft | 14 kts | 74° |
| 2026-05-09 00:43 | 45.80880 | -109.96892 | 4460 ft | 16 kts | 74° |
| 2026-05-09 00:43 | 45.80906 | -109.96781 | 4455 ft | 3 kts | 78° |
| 2026-05-09 00:43 | 45.80901 | -109.96771 | 4455 ft | 0 kts | 143° |
| 2026-05-09 00:44 | 45.80899 | -109.96771 | 4455 ft | 0 kts | 168° |
| 2026-05-09 00:44 | 45.80892 | -109.96784 | 4455 ft | 0 kts | 253° |
| 2026-05-09 00:45 | 45.80819 | -109.97176 | 4471 ft | 82 kts | 253° |
| 2026-05-09 00:45 | 45.80587 | -109.98324 | 4520 ft | 150 kts | 255° |
| 2026-05-09 00:45 | 45.80240 | -109.99757 | 5255 ft | 157 kts | 246° |
| 2026-05-09 00:46 | 45.79564 | -110.00978 | 6081 ft | 172 kts | 231° |
| 2026-05-09 00:46 | 45.78508 | -110.02119 | 6664 ft | 212 kts | 209° |
| 2026-05-09 00:46 | 45.77092 | -110.02555 | 8000 ft | 215 kts | 184° |
| 2026-05-09 00:46 | 45.75500 | -110.02086 | 8498 ft | 262 kts | 158° |
| 2026-05-09 00:47 | 45.74050 | -110.00410 | 9451 ft | 286 kts | 129° |
| 2026-05-09 00:47 | 45.73046 | -109.97858 | 10399 ft | 310 kts | 110° |
| 2026-05-09 00:47 | 45.72812 | -109.94817 | 11706 ft | 315 kts | 82° |
| 2026-05-09 00:47 | 45.73081 | -109.91712 | 13018 ft | 322 kts | 81° |
| 2026-05-09 00:48 | 45.73367 | -109.88551 | 14156 ft | 327 kts | 80° |
| 2026-05-09 00:48 | 45.73664 | -109.85277 | 14631 ft | 351 kts | 81° |
| 2026-05-09 00:48 | 45.73998 | -109.81612 | 14655 ft | 392 kts | 81° |
| 2026-05-09 00:48 | 45.74113 | -109.77651 | 15584 ft | 403 kts | 94° |
| 2026-05-09 00:49 | 45.73580 | -109.73737 | 16720 ft | 407 kts | 105° |
| 2026-05-09 00:49 | 45.72695 | -109.69885 | 17676 ft | 416 kts | 110° |
| 2026-05-09 00:49 | 45.71661 | -109.66027 | 18694 ft | 423 kts | 111° |
| 2026-05-09 00:49 | 45.70551 | -109.62125 | 19641 ft | 432 kts | 111° |
| 2026-05-09 00:50 | 45.69389 | -109.58128 | 20659 ft | 439 kts | 111° |
| 2026-05-09 00:50 | 45.68202 | -109.54082 | 21627 ft | 446 kts | 111° |
| 2026-05-09 00:50 | 45.67001 | -109.50004 | 22551 ft | 454 kts | 111° |
| 2026-05-09 00:50 | 45.65774 | -109.45852 | 23457 ft | 462 kts | 111° |
| 2026-05-09 00:51 | 45.64518 | -109.41607 | 24387 ft | 469 kts | 111° |
| 2026-05-09 00:51 | 45.63240 | -109.37296 | 25219 ft | 477 kts | 111° |
| 2026-05-09 00:51 | 45.61948 | -109.32944 | 26105 ft | 482 kts | 112° |
| 2026-05-09 00:51 | 45.60628 | -109.28513 | 26881 ft | 489 kts | 112° |
| 2026-05-09 00:52 | 45.59296 | -109.24047 | 27579 ft | 496 kts | 112° |
| 2026-05-09 00:52 | 45.57943 | -109.19515 | 28349 ft | 502 kts | 112° |
| 2026-05-09 00:52 | 45.56564 | -109.14908 | 29011 ft | 509 kts | 112° |
| 2026-05-09 00:52 | 45.55170 | -109.10259 | 29684 ft | 516 kts | 112° |
| 2026-05-09 00:53 | 45.53741 | -109.05503 | 30346 ft | 523 kts | 112° |
| 2026-05-09 00:53 | 45.52316 | -109.00766 | 31054 ft | 526 kts | 112° |
| 2026-05-09 00:53 | 45.50872 | -108.95977 | 32014 ft | 524 kts | 112° |
| 2026-05-09 00:53 | 45.49443 | -108.91248 | 32816 ft | 524 kts | 112° |
| 2026-05-09 00:54 | 45.48011 | -108.86517 | 33652 ft | 522 kts | 112° |
| 2026-05-09 00:54 | 45.46562 | -108.81737 | 34433 ft | 523 kts | 112° |
| 2026-05-09 00:54 | 45.45135 | -108.77039 | 35261 ft | 521 kts | 112° |
| 2026-05-09 00:54 | 45.43705 | -108.72342 | 36187 ft | 518 kts | 112° |
| 2026-05-09 00:55 | 45.42273 | -108.67642 | 36964 ft | 517 kts | 112° |
| 2026-05-09 00:55 | 45.40837 | -108.62946 | 37710 ft | 517 kts | 112° |
| 2026-05-09 00:55 | 45.39390 | -108.58216 | 38434 ft | 516 kts | 112° |
| 2026-05-09 00:55 | 45.37963 | -108.53562 | 39037 ft | 516 kts | 112° |
| 2026-05-09 00:56 | 45.36518 | -108.48854 | 39699 ft | 516 kts | 112° |
| 2026-05-09 00:56 | 45.35077 | -108.44177 | 40287 ft | 515 kts | 112° |
| 2026-05-09 00:56 | 45.33618 | -108.39445 | 40897 ft | 514 kts | 112° |
| 2026-05-09 00:56 | 45.32178 | -108.34780 | 41597 ft | 510 kts | 112° |
| 2026-05-09 00:57 | 45.30753 | -108.30180 | 42165 ft | 508 kts | 112° |
| 2026-05-09 00:57 | 45.29328 | -108.25579 | 42583 ft | 508 kts | 112° |
| 2026-05-09 00:57 | 45.27912 | -108.21019 | 43064 ft | 505 kts | 112° |
| 2026-05-09 00:57 | 45.26507 | -108.16504 | 43480 ft | 503 kts | 112° |
| 2026-05-09 00:58 | 45.25097 | -108.11979 | 43835 ft | 503 kts | 112° |
| 2026-05-09 00:58 | 45.23564 | -108.07531 | 44130 ft | 504 kts | 120° |
| 2026-05-09 00:58 | 45.21706 | -108.03297 | 44412 ft | 504 kts | 121° |
| 2026-05-09 00:58 | 45.19868 | -107.99136 | 44785 ft | 503 kts | 121° |
| 2026-05-09 00:59 | 45.17999 | -107.94937 | 45047 ft | 505 kts | 121° |
| 2026-05-09 00:59 | 45.16109 | -107.90696 | 45028 ft | 512 kts | 121° |
| 2026-05-09 00:59 | 45.12268 | -107.82109 | 45041 ft | 523 kts | 121° |
| 2026-05-09 01:00 | 45.08348 | -107.73375 | 45039 ft | 525 kts | 121° |
| 2026-05-09 01:00 | 45.04481 | -107.64786 | 45020 ft | 518 kts | 121° |
| 2026-05-09 01:01 | 45.00644 | -107.56287 | 45023 ft | 517 kts | 121° |
| 2026-05-09 01:01 | 44.96762 | -107.47713 | 45007 ft | 520 kts | 121° |
| 2026-05-09 01:02 | 44.92865 | -107.39136 | 45016 ft | 520 kts | 120° |
| 2026-05-09 01:02 | 44.88959 | -107.30556 | 45015 ft | 519 kts | 121° |
| 2026-05-09 01:03 | 44.85065 | -107.22037 | 45000 ft | 519 kts | 121° |
| 2026-05-09 01:03 | 44.81134 | -107.13459 | 44968 ft | 520 kts | 121° |
| 2026-05-09 01:04 | 44.77215 | -107.04932 | 44978 ft | 521 kts | 121° |
| 2026-05-09 01:04 | 44.73280 | -106.96400 | 44942 ft | 520 kts | 121° |
| 2026-05-09 01:05 | 44.69376 | -106.87954 | 44960 ft | 520 kts | 121° |
| 2026-05-09 01:06 | 44.63462 | -106.75213 | 44999 ft | 520 kts | 121° |
| 2026-05-09 01:06 | 44.59510 | -106.66730 | 44989 ft | 521 kts | 121° |
| 2026-05-09 01:07 | 44.55539 | -106.58230 | 44992 ft | 520 kts | 121° |
| 2026-05-09 01:07 | 44.51569 | -106.49758 | 44999 ft | 520 kts | 121° |
| 2026-05-09 01:08 | 44.47597 | -106.41303 | 44974 ft | 520 kts | 121° |
| 2026-05-09 01:08 | 44.43623 | -106.32872 | 44973 ft | 520 kts | 122° |
| 2026-05-09 01:09 | 44.39621 | -106.24407 | 44957 ft | 520 kts | 122° |
| 2026-05-09 01:09 | 44.35648 | -106.16026 | 44963 ft | 519 kts | 122° |
| 2026-05-09 01:10 | 44.31652 | -106.07623 | 44987 ft | 520 kts | 122° |
| 2026-05-09 01:10 | 44.27640 | -105.99210 | 44977 ft | 522 kts | 122° |
| 2026-05-09 01:11 | 44.23615 | -105.90793 | 44976 ft | 523 kts | 122° |
| 2026-05-09 01:11 | 44.19596 | -105.82414 | 44987 ft | 521 kts | 122° |
| 2026-05-09 01:12 | 44.15550 | -105.74002 | 44982 ft | 520 kts | 122° |
| 2026-05-09 01:12 | 44.11511 | -105.65630 | 44970 ft | 520 kts | 122° |
| 2026-05-09 01:13 | 44.07511 | -105.57364 | 44986 ft | 519 kts | 121° |
| 2026-05-09 01:13 | 44.03482 | -105.49058 | 44996 ft | 520 kts | 122° |
| 2026-05-09 01:14 | 43.99412 | -105.40694 | 44972 ft | 520 kts | 122° |
| 2026-05-09 01:14 | 43.95354 | -105.32379 | 44984 ft | 521 kts | 122° |
| 2026-05-09 01:15 | 43.91260 | -105.24013 | 44973 ft | 521 kts | 122° |
| 2026-05-09 01:15 | 43.87180 | -105.15696 | 44969 ft | 522 kts | 122° |
| 2026-05-09 01:16 | 43.83074 | -105.07354 | 44965 ft | 522 kts | 122° |
| 2026-05-09 01:16 | 43.78986 | -104.99073 | 44968 ft | 521 kts | 122° |
| 2026-05-09 01:17 | 43.72842 | -104.86668 | 44991 ft | 520 kts | 122° |
| 2026-05-09 01:17 | 43.68731 | -104.78400 | 44984 ft | 521 kts | 122° |
| 2026-05-09 01:18 | 43.64653 | -104.70216 | 44979 ft | 520 kts | 122° |
| 2026-05-09 01:18 | 43.60552 | -104.62010 | 44983 ft | 521 kts | 123° |
| 2026-05-09 01:19 | 43.56439 | -104.53806 | 44985 ft | 520 kts | 122° |
| 2026-05-09 01:19 | 43.52331 | -104.45635 | 44985 ft | 521 kts | 123° |
| 2026-05-09 01:20 | 43.48216 | -104.37470 | 44981 ft | 521 kts | 123° |
| 2026-05-09 01:20 | 43.44047 | -104.29221 | 44981 ft | 521 kts | 123° |
| 2026-05-09 01:21 | 43.39901 | -104.21042 | 44968 ft | 521 kts | 123° |
| 2026-05-09 01:21 | 43.35731 | -104.12838 | 44970 ft | 521 kts | 123° |
| 2026-05-09 01:22 | 43.31560 | -104.04655 | 44971 ft | 521 kts | 123° |
| 2026-05-09 01:22 | 43.27430 | -103.96572 | 44962 ft | 522 kts | 123° |
| 2026-05-09 01:23 | 43.23228 | -103.88376 | 44958 ft | 522 kts | 123° |
| 2026-05-09 01:23 | 43.19044 | -103.80234 | 44958 ft | 521 kts | 123° |
| 2026-05-09 01:24 | 43.14866 | -103.72127 | 44948 ft | 522 kts | 123° |
| 2026-05-09 01:24 | 43.10694 | -103.64053 | 44941 ft | 522 kts | 123° |
| 2026-05-09 01:25 | 43.06506 | -103.55971 | 44946 ft | 522 kts | 123° |
| 2026-05-09 01:25 | 43.02294 | -103.47864 | 44942 ft | 523 kts | 123° |
| 2026-05-09 01:26 | 42.98155 | -103.39681 | 44946 ft | 520 kts | 120° |
| 2026-05-09 01:26 | 42.94200 | -103.31372 | 44938 ft | 520 kts | 121° |
| 2026-05-09 01:27 | 42.90252 | -103.23131 | 44930 ft | 521 kts | 122° |
| 2026-05-09 01:27 | 42.86293 | -103.14892 | 44929 ft | 521 kts | 121° |
| 2026-05-09 01:28 | 42.82326 | -103.06658 | 44938 ft | 521 kts | 121° |
| 2026-05-09 01:28 | 42.78325 | -102.98377 | 44922 ft | 521 kts | 122° |
| 2026-05-09 01:29 | 42.74347 | -102.90166 | 44935 ft | 522 kts | 122° |
| 2026-05-09 01:29 | 42.70326 | -102.81888 | 44933 ft | 522 kts | 122° |
| 2026-05-09 01:30 | 42.66313 | -102.73654 | 44935 ft | 522 kts | 121° |
| 2026-05-09 01:30 | 42.62306 | -102.65452 | 44933 ft | 522 kts | 121° |
| 2026-05-09 01:31 | 42.58301 | -102.57274 | 44946 ft | 523 kts | 122° |
| 2026-05-09 01:31 | 42.54286 | -102.49103 | 44939 ft | 523 kts | 122° |
| 2026-05-09 01:32 | 42.50253 | -102.40916 | 44941 ft | 523 kts | 122° |
| 2026-05-09 01:32 | 42.46191 | -102.32690 | 44953 ft | 524 kts | 123° |
| 2026-05-09 01:33 | 42.42153 | -102.24540 | 44933 ft | 523 kts | 123° |
| 2026-05-09 01:33 | 42.38083 | -102.16344 | 44963 ft | 523 kts | 123° |
| 2026-05-09 01:34 | 42.34032 | -102.08209 | 44952 ft | 523 kts | 123° |
| 2026-05-09 01:34 | 42.29966 | -102.00068 | 44953 ft | 522 kts | 123° |
| 2026-05-09 01:35 | 42.25892 | -101.91928 | 44948 ft | 523 kts | 123° |
| 2026-05-09 01:35 | 42.21843 | -101.83864 | 44940 ft | 522 kts | 123° |
| 2026-05-09 01:36 | 42.17736 | -101.75706 | 44934 ft | 523 kts | 123° |
| 2026-05-09 01:36 | 42.13658 | -101.67628 | 44932 ft | 523 kts | 123° |
| 2026-05-09 01:37 | 42.09562 | -101.59534 | 44928 ft | 523 kts | 123° |
| 2026-05-09 01:37 | 42.05451 | -101.51432 | 44938 ft | 524 kts | 123° |
| 2026-05-09 01:38 | 42.01344 | -101.43362 | 44936 ft | 524 kts | 123° |
| 2026-05-09 01:38 | 41.97226 | -101.35292 | 44931 ft | 525 kts | 123° |
| 2026-05-09 01:39 | 41.93077 | -101.27181 | 44921 ft | 522 kts | 124° |
| 2026-05-09 01:39 | 41.88988 | -101.19207 | 44903 ft | 521 kts | 124° |
| 2026-05-09 01:40 | 41.84858 | -101.11177 | 44915 ft | 522 kts | 124° |
| 2026-05-09 01:40 | 41.80917 | -101.03533 | 44908 ft | 522 kts | 124° |
| 2026-05-09 01:41 | 41.76797 | -100.95563 | 44930 ft | 522 kts | 124° |
| 2026-05-09 01:41 | 41.72664 | -100.87588 | 44921 ft | 523 kts | 124° |
| 2026-05-09 01:42 | 41.68521 | -100.79617 | 44925 ft | 523 kts | 124° |
| 2026-05-09 01:42 | 41.64374 | -100.71658 | 44921 ft | 523 kts | 124° |
| 2026-05-09 01:43 | 41.60205 | -100.63675 | 44912 ft | 522 kts | 124° |
| 2026-05-09 01:43 | 41.56072 | -100.55783 | 44922 ft | 522 kts | 124° |
| 2026-05-09 01:44 | 41.51891 | -100.47820 | 44919 ft | 521 kts | 124° |
| 2026-05-09 01:44 | 41.47746 | -100.39947 | 44918 ft | 521 kts | 124° |
| 2026-05-09 01:45 | 41.43595 | -100.32082 | 44917 ft | 522 kts | 125° |
| 2026-05-09 01:45 | 41.39409 | -100.24171 | 44918 ft | 522 kts | 125° |
| 2026-05-09 01:46 | 41.35232 | -100.16299 | 44928 ft | 522 kts | 125° |
| 2026-05-09 01:46 | 41.31055 | -100.08446 | 44931 ft | 522 kts | 125° |
| 2026-05-09 01:47 | 41.26856 | -100.00571 | 44930 ft | 522 kts | 125° |
| 2026-05-09 01:47 | 41.22636 | -99.92680 | 44914 ft | 522 kts | 125° |
| 2026-05-09 01:48 | 41.18386 | -99.84751 | 44896 ft | 521 kts | 125° |
| 2026-05-09 01:48 | 41.14177 | -99.76918 | 44909 ft | 520 kts | 125° |
| 2026-05-09 01:49 | 41.09986 | -99.69138 | 44914 ft | 521 kts | 125° |
| 2026-05-09 01:49 | 41.05771 | -99.61337 | 44895 ft | 521 kts | 125° |
| 2026-05-09 01:50 | 41.01570 | -99.53575 | 44923 ft | 520 kts | 125° |
| 2026-05-09 01:50 | 40.97340 | -99.45782 | 44907 ft | 521 kts | 125° |
| 2026-05-09 01:51 | 40.93098 | -99.37987 | 44896 ft | 523 kts | 126° |
| 2026-05-09 01:51 | 40.88839 | -99.30183 | 44870 ft | 524 kts | 126° |
| 2026-05-09 01:52 | 40.84553 | -99.22346 | 44870 ft | 523 kts | 126° |
| 2026-05-09 01:52 | 40.80286 | -99.14566 | 44869 ft | 523 kts | 127° |
| 2026-05-09 01:53 | 40.76045 | -99.06851 | 44871 ft | 523 kts | 126° |
| 2026-05-09 01:53 | 40.71663 | -98.99144 | 44883 ft | 522 kts | 130° |
| 2026-05-09 01:54 | 40.67129 | -98.91766 | 44888 ft | 521 kts | 130° |
| 2026-05-09 01:54 | 40.62542 | -98.84372 | 44877 ft | 520 kts | 130° |
| 2026-05-09 01:55 | 40.57947 | -98.76991 | 44882 ft | 520 kts | 130° |
| 2026-05-09 01:55 | 40.53367 | -98.69651 | 44880 ft | 520 kts | 130° |
| 2026-05-09 01:56 | 40.48775 | -98.62312 | 44871 ft | 521 kts | 130° |
| 2026-05-09 01:56 | 40.44187 | -98.54993 | 44869 ft | 522 kts | 130° |
| 2026-05-09 01:57 | 40.39568 | -98.47646 | 44873 ft | 521 kts | 130° |
| 2026-05-09 01:57 | 40.34961 | -98.40332 | 44857 ft | 521 kts | 130° |
| 2026-05-09 01:58 | 40.30360 | -98.33047 | 44863 ft | 521 kts | 131° |
| 2026-05-09 01:58 | 40.25726 | -98.25725 | 44851 ft | 519 kts | 131° |
| 2026-05-09 01:59 | 40.21067 | -98.18383 | 44856 ft | 522 kts | 131° |
| 2026-05-09 01:59 | 40.16457 | -98.11134 | 44844 ft | 520 kts | 131° |
| 2026-05-09 02:00 | 40.11826 | -98.03869 | 44844 ft | 520 kts | 131° |
| 2026-05-09 02:00 | 40.07181 | -97.96599 | 44846 ft | 520 kts | 131° |
| 2026-05-09 02:01 | 40.02549 | -97.89367 | 44856 ft | 520 kts | 131° |
| 2026-05-09 02:01 | 39.97899 | -97.82124 | 44836 ft | 521 kts | 131° |
| 2026-05-09 02:02 | 39.93241 | -97.74887 | 44837 ft | 523 kts | 131° |
| 2026-05-09 02:02 | 39.88566 | -97.67638 | 44843 ft | 524 kts | 131° |
| 2026-05-09 02:03 | 39.83881 | -97.60390 | 44841 ft | 522 kts | 131° |
| 2026-05-09 02:03 | 39.79213 | -97.53187 | 44837 ft | 522 kts | 131° |
| 2026-05-09 02:04 | 39.74519 | -97.45959 | 44867 ft | 522 kts | 131° |
| 2026-05-09 02:04 | 39.69862 | -97.38803 | 44850 ft | 522 kts | 131° |
| 2026-05-09 02:05 | 39.65163 | -97.31602 | 44848 ft | 522 kts | 132° |
| 2026-05-09 02:05 | 39.60433 | -97.24370 | 45283 ft | 524 kts | 133° |
| 2026-05-09 02:06 | 39.58113 | -97.20829 | 45688 ft | 521 kts | 133° |
| 2026-05-09 02:06 | 39.55730 | -97.17197 | 45916 ft | 522 kts | 133° |
| 2026-05-09 02:06 | 39.53380 | -97.13616 | 46164 ft | 522 kts | 133° |
| 2026-05-09 02:07 | 39.48664 | -97.06448 | 46655 ft | 522 kts | 133° |
| 2026-05-09 02:07 | 39.46296 | -97.02852 | 46918 ft | 521 kts | 133° |
| 2026-05-09 02:07 | 39.43946 | -96.99290 | 47141 ft | 521 kts | 133° |
| 2026-05-09 02:07 | 39.41591 | -96.95725 | 47342 ft | 521 kts | 133° |
| 2026-05-09 02:08 | 39.39234 | -96.92160 | 47611 ft | 520 kts | 133° |
| 2026-05-09 02:08 | 39.36906 | -96.88643 | 47819 ft | 520 kts | 133° |
| 2026-05-09 02:08 | 39.34540 | -96.85072 | 47991 ft | 520 kts | 133° |
| 2026-05-09 02:08 | 39.32198 | -96.81539 | 48198 ft | 519 kts | 133° |
| 2026-05-09 02:09 | 39.29837 | -96.77988 | 48410 ft | 519 kts | 133° |
| 2026-05-09 02:09 | 39.27506 | -96.74480 | 48610 ft | 518 kts | 133° |
| 2026-05-09 02:09 | 39.25178 | -96.70982 | 48755 ft | 518 kts | 132° |
| 2026-05-09 02:09 | 39.22827 | -96.67454 | 48866 ft | 516 kts | 133° |
| 2026-05-09 02:10 | 39.20495 | -96.63959 | 48853 ft | 515 kts | 133° |
| 2026-05-09 02:10 | 39.15803 | -96.56937 | 48869 ft | 516 kts | 133° |
| 2026-05-09 02:11 | 39.11121 | -96.49947 | 48874 ft | 517 kts | 133° |
| 2026-05-09 02:11 | 39.06417 | -96.42938 | 48876 ft | 517 kts | 133° |
| 2026-05-09 02:12 | 39.01733 | -96.35976 | 48869 ft | 516 kts | 133° |
| 2026-05-09 02:12 | 38.97044 | -96.29021 | 48863 ft | 516 kts | 134° |
| 2026-05-09 02:13 | 38.92358 | -96.22084 | 48889 ft | 515 kts | 134° |
| 2026-05-09 02:13 | 38.87647 | -96.15128 | 48883 ft | 515 kts | 133° |
| 2026-05-09 02:14 | 38.82962 | -96.08224 | 48896 ft | 517 kts | 134° |
| 2026-05-09 02:14 | 38.78258 | -96.01309 | 48896 ft | 517 kts | 134° |
| 2026-05-09 02:15 | 38.73534 | -95.94378 | 48895 ft | 516 kts | 134° |
| 2026-05-09 02:15 | 38.68800 | -95.87448 | 48895 ft | 517 kts | 134° |
| 2026-05-09 02:16 | 38.64086 | -95.80562 | 48886 ft | 518 kts | 134° |
| 2026-05-09 02:16 | 38.59334 | -95.73635 | 48900 ft | 517 kts | 134° |
| 2026-05-09 02:17 | 38.54610 | -95.66766 | 48885 ft | 518 kts | 134° |
| 2026-05-09 02:17 | 38.49877 | -95.59897 | 48886 ft | 517 kts | 134° |
| 2026-05-09 02:18 | 38.45112 | -95.52998 | 48891 ft | 518 kts | 134° |
| 2026-05-09 02:18 | 38.40340 | -95.46102 | 48895 ft | 518 kts | 134° |
| 2026-05-09 02:19 | 38.35593 | -95.39259 | 48881 ft | 519 kts | 134° |
| 2026-05-09 02:19 | 38.30803 | -95.32365 | 48876 ft | 519 kts | 135° |
| 2026-05-09 02:20 | 38.26013 | -95.25491 | 48873 ft | 518 kts | 135° |
| 2026-05-09 02:20 | 38.21251 | -95.18668 | 48865 ft | 520 kts | 135° |
| 2026-05-09 02:21 | 38.16448 | -95.11739 | 48871 ft | 521 kts | 130° |
| 2026-05-09 02:21 | 38.12324 | -95.04130 | 48875 ft | 522 kts | 127° |
| 2026-05-09 02:22 | 38.08163 | -94.96595 | 48891 ft | 523 kts | 128° |
| 2026-05-09 02:22 | 38.03974 | -94.89049 | 48893 ft | 523 kts | 128° |
| 2026-05-09 02:23 | 37.99802 | -94.81552 | 48894 ft | 524 kts | 128° |
| 2026-05-09 02:23 | 37.95593 | -94.74004 | 48887 ft | 524 kts | 128° |
| 2026-05-09 02:24 | 37.91401 | -94.66508 | 48883 ft | 524 kts | 128° |
| 2026-05-09 02:24 | 37.87183 | -94.58978 | 48888 ft | 523 kts | 128° |
| 2026-05-09 02:25 | 37.82985 | -94.51506 | 48894 ft | 523 kts | 128° |
| 2026-05-09 02:25 | 37.78781 | -94.44037 | 48888 ft | 524 kts | 128° |
| 2026-05-09 02:26 | 37.74546 | -94.36528 | 48891 ft | 524 kts | 128° |
| 2026-05-09 02:26 | 37.70305 | -94.29028 | 48888 ft | 523 kts | 129° |
| 2026-05-09 02:27 | 37.66080 | -94.21573 | 48888 ft | 522 kts | 129° |
| 2026-05-09 02:27 | 37.61834 | -94.14099 | 48885 ft | 522 kts | 129° |
| 2026-05-09 02:28 | 37.57629 | -94.06711 | 48887 ft | 522 kts | 129° |
| 2026-05-09 02:28 | 37.53394 | -93.99289 | 48893 ft | 522 kts | 129° |
| 2026-05-09 02:29 | 37.49178 | -93.91917 | 48889 ft | 522 kts | 129° |
| 2026-05-09 02:29 | 37.44923 | -93.84490 | 48893 ft | 522 kts | 129° |
| 2026-05-09 02:30 | 37.40693 | -93.77126 | 48878 ft | 522 kts | 129° |
| 2026-05-09 02:30 | 37.36469 | -93.69789 | 48886 ft | 521 kts | 129° |
| 2026-05-09 02:31 | 37.32220 | -93.62423 | 48883 ft | 522 kts | 129° |
| 2026-05-09 02:31 | 37.27945 | -93.55029 | 48878 ft | 522 kts | 129° |
| 2026-05-09 02:32 | 37.23699 | -93.47701 | 48883 ft | 521 kts | 129° |
| 2026-05-09 02:32 | 37.19458 | -93.40401 | 48884 ft | 521 kts | 129° |
| 2026-05-09 02:33 | 37.15179 | -93.33046 | 48875 ft | 522 kts | 130° |
| 2026-05-09 02:33 | 37.10883 | -93.25681 | 48877 ft | 521 kts | 130° |
| 2026-05-09 02:34 | 37.06607 | -93.18367 | 48890 ft | 521 kts | 130° |
| 2026-05-09 02:34 | 37.02409 | -93.11200 | 48881 ft | 520 kts | 130° |
| 2026-05-09 02:35 | 36.98115 | -93.03886 | 48895 ft | 521 kts | 130° |
| 2026-05-09 02:35 | 36.93843 | -92.96625 | 48880 ft | 522 kts | 130° |
| 2026-05-09 02:36 | 36.89523 | -92.89297 | 48889 ft | 522 kts | 130° |
| 2026-05-09 02:36 | 36.85225 | -92.82023 | 48892 ft | 522 kts | 131° |
| 2026-05-09 02:37 | 36.80917 | -92.74751 | 48880 ft | 522 kts | 131° |
| 2026-05-09 02:37 | 36.76606 | -92.67485 | 48877 ft | 522 kts | 131° |
| 2026-05-09 02:38 | 36.72290 | -92.60229 | 48885 ft | 523 kts | 131° |
| 2026-05-09 02:38 | 36.67966 | -92.52975 | 48882 ft | 524 kts | 131° |
| 2026-05-09 02:39 | 36.63618 | -92.45695 | 48884 ft | 525 kts | 131° |
| 2026-05-09 02:39 | 36.59259 | -92.38409 | 48894 ft | 525 kts | 131° |
| 2026-05-09 02:40 | 36.54898 | -92.31140 | 48868 ft | 524 kts | 132° |
| 2026-05-09 02:40 | 36.50564 | -92.23932 | 48864 ft | 523 kts | 132° |
| 2026-05-09 02:41 | 36.46189 | -92.16670 | 48876 ft | 526 kts | 132° |
| 2026-05-09 02:41 | 36.41823 | -92.09436 | 48874 ft | 526 kts | 132° |
| 2026-05-09 02:42 | 36.37431 | -92.02180 | 48877 ft | 526 kts | 132° |
| 2026-05-09 02:42 | 36.33062 | -91.94971 | 48880 ft | 525 kts | 132° |
| 2026-05-09 02:43 | 36.28684 | -91.87764 | 48877 ft | 526 kts | 132° |
| 2026-05-09 02:43 | 36.24283 | -91.80537 | 48885 ft | 527 kts | 132° |
| 2026-05-09 02:44 | 36.19859 | -91.73284 | 48883 ft | 527 kts | 132° |
| 2026-05-09 02:44 | 36.15446 | -91.66068 | 48893 ft | 528 kts | 132° |
| 2026-05-09 02:45 | 36.11168 | -91.58717 | 48920 ft | 530 kts | 129° |
| 2026-05-09 02:45 | 36.07045 | -91.51247 | 48866 ft | 531 kts | 129° |
| 2026-05-09 02:46 | 36.02883 | -91.43749 | 48936 ft | 530 kts | 129° |
| 2026-05-09 02:46 | 35.98725 | -91.36269 | 48882 ft | 530 kts | 129° |
| 2026-05-09 02:47 | 35.94553 | -91.28786 | 48843 ft | 529 kts | 130° |
| 2026-05-09 02:47 | 35.90365 | -91.21287 | 48860 ft | 529 kts | 130° |
| 2026-05-09 02:48 | 35.86118 | -91.13699 | 48854 ft | 530 kts | 130° |
| 2026-05-09 02:48 | 35.81946 | -91.06265 | 48872 ft | 531 kts | 130° |
| 2026-05-09 02:49 | 35.77758 | -90.98813 | 48857 ft | 530 kts | 130° |
| 2026-05-09 02:49 | 35.73585 | -90.91410 | 48865 ft | 530 kts | 130° |
| 2026-05-09 02:50 | 35.69386 | -90.83968 | 48880 ft | 531 kts | 130° |
| 2026-05-09 02:50 | 35.65173 | -90.76523 | 48885 ft | 531 kts | 130° |
| 2026-05-09 02:51 | 35.60933 | -90.69044 | 48879 ft | 531 kts | 131° |
| 2026-05-09 02:51 | 35.56718 | -90.61629 | 48896 ft | 530 kts | 131° |
| 2026-05-09 02:52 | 35.52511 | -90.54240 | 48887 ft | 530 kts | 131° |
| 2026-05-09 02:52 | 35.48258 | -90.46790 | 48893 ft | 531 kts | 131° |
| 2026-05-09 02:53 | 35.44033 | -90.39404 | 48890 ft | 531 kts | 131° |
| 2026-05-09 02:53 | 35.39766 | -90.31957 | 48880 ft | 532 kts | 131° |
| 2026-05-09 02:54 | 35.35538 | -90.24591 | 48888 ft | 531 kts | 131° |
| 2026-05-09 02:54 | 35.31276 | -90.17189 | 48898 ft | 531 kts | 131° |
| 2026-05-09 02:55 | 35.27050 | -90.09862 | 48904 ft | 532 kts | 131° |
| 2026-05-09 02:55 | 35.22791 | -90.02490 | 48913 ft | 532 kts | 132° |
| 2026-05-09 02:56 | 35.18507 | -89.95094 | 48911 ft | 532 kts | 131° |
| 2026-05-09 02:56 | 35.14230 | -89.87726 | 48919 ft | 532 kts | 132° |
| 2026-05-09 02:57 | 35.09975 | -89.80409 | 48919 ft | 532 kts | 132° |
| 2026-05-09 02:57 | 35.05691 | -89.73058 | 48924 ft | 532 kts | 132° |
| 2026-05-09 02:58 | 35.01399 | -89.65710 | 48933 ft | 532 kts | 132° |
| 2026-05-09 02:58 | 34.97102 | -89.58368 | 48916 ft | 533 kts | 132° |
| 2026-05-09 02:59 | 34.92816 | -89.51060 | 48931 ft | 535 kts | 132° |
| 2026-05-09 02:59 | 34.88486 | -89.43689 | 48947 ft | 534 kts | 132° |
| 2026-05-09 03:00 | 34.84174 | -89.36368 | 48934 ft | 533 kts | 132° |
| 2026-05-09 03:00 | 34.79834 | -89.29012 | 48919 ft | 532 kts | 133° |
| 2026-05-09 03:01 | 34.75532 | -89.21738 | 48937 ft | 533 kts | 133° |
| 2026-05-09 03:01 | 34.71194 | -89.14420 | 48944 ft | 535 kts | 133° |
| 2026-05-09 03:02 | 34.66860 | -89.07119 | 48942 ft | 537 kts | 133° |
| 2026-05-09 03:02 | 34.62509 | -88.99806 | 48947 ft | 536 kts | 133° |
| 2026-05-09 03:03 | 34.58143 | -88.92482 | 48938 ft | 536 kts | 133° |
| 2026-05-09 03:03 | 34.53793 | -88.85203 | 48963 ft | 537 kts | 133° |
| 2026-05-09 03:04 | 34.49395 | -88.77874 | 48957 ft | 537 kts | 134° |
| 2026-05-09 03:04 | 34.44888 | -88.70684 | 48957 ft | 536 kts | 135° |
| 2026-05-09 03:05 | 34.40400 | -88.63532 | 48978 ft | 537 kts | 135° |
| 2026-05-09 03:05 | 34.35905 | -88.56387 | 48961 ft | 536 kts | 135° |
| 2026-05-09 03:06 | 34.31385 | -88.49213 | 48982 ft | 537 kts | 135° |
| 2026-05-09 03:06 | 34.26861 | -88.42047 | 48975 ft | 537 kts | 135° |
| 2026-05-09 03:07 | 34.22330 | -88.34885 | 48959 ft | 539 kts | 135° |
| 2026-05-09 03:07 | 34.17771 | -88.27694 | 48919 ft | 538 kts | 135° |
| 2026-05-09 03:08 | 34.13212 | -88.20518 | 48925 ft | 538 kts | 135° |
| 2026-05-09 03:08 | 34.08631 | -88.13321 | 48943 ft | 539 kts | 135° |
| 2026-05-09 03:09 | 34.04056 | -88.06145 | 48941 ft | 539 kts | 136° |
| 2026-05-09 03:09 | 33.99467 | -87.98962 | 48944 ft | 539 kts | 135° |
| 2026-05-09 03:10 | 33.94855 | -87.91760 | 48952 ft | 541 kts | 135° |
| 2026-05-09 03:10 | 33.90279 | -87.84624 | 48955 ft | 539 kts | 135° |
| 2026-05-09 03:11 | 33.85683 | -87.77477 | 48979 ft | 540 kts | 135° |
| 2026-05-09 03:11 | 33.81088 | -87.70339 | 48976 ft | 541 kts | 135° |
| 2026-05-09 03:12 | 33.76482 | -87.63206 | 48966 ft | 540 kts | 135° |
| 2026-05-09 03:12 | 33.71894 | -87.56109 | 48977 ft | 538 kts | 135° |
| 2026-05-09 03:13 | 33.65015 | -87.45497 | 48970 ft | 536 kts | 135° |
| 2026-05-09 03:13 | 33.60414 | -87.38415 | 48980 ft | 540 kts | 135° |
| 2026-05-09 03:14 | 33.55807 | -87.31338 | 48943 ft | 538 kts | 136° |
| 2026-05-09 03:14 | 33.51209 | -87.24289 | 48955 ft | 535 kts | 136° |
| 2026-05-09 03:15 | 33.46634 | -87.17290 | 48964 ft | 536 kts | 136° |
| 2026-05-09 03:15 | 33.42032 | -87.10260 | 48965 ft | 539 kts | 136° |
| 2026-05-09 03:16 | 33.37403 | -87.03203 | 48973 ft | 538 kts | 136° |
| 2026-05-09 03:16 | 33.32786 | -86.96178 | 48980 ft | 536 kts | 136° |
| 2026-05-09 03:17 | 33.28203 | -86.89221 | 48972 ft | 536 kts | 136° |
| 2026-05-09 03:17 | 33.23592 | -86.82236 | 48983 ft | 538 kts | 136° |
| 2026-05-09 03:18 | 33.18949 | -86.75210 | 48971 ft | 538 kts | 136° |
| 2026-05-09 03:18 | 33.14301 | -86.68194 | 48979 ft | 538 kts | 136° |
| 2026-05-09 03:19 | 33.09686 | -86.61240 | 48970 ft | 538 kts | 136° |
| 2026-05-09 03:19 | 33.05013 | -86.54211 | 48972 ft | 539 kts | 136° |
| 2026-05-09 03:20 | 33.00357 | -86.47220 | 48966 ft | 538 kts | 136° |
| 2026-05-09 03:20 | 32.95681 | -86.40214 | 48979 ft | 538 kts | 136° |
| 2026-05-09 03:21 | 32.91026 | -86.33253 | 48968 ft | 537 kts | 137° |
| 2026-05-09 03:21 | 32.86350 | -86.26273 | 48960 ft | 537 kts | 137° |
| 2026-05-09 03:22 | 32.81703 | -86.19349 | 48965 ft | 539 kts | 137° |
| 2026-05-09 03:22 | 32.77014 | -86.12377 | 48962 ft | 538 kts | 136° |
| 2026-05-09 03:23 | 32.72343 | -86.05444 | 48968 ft | 538 kts | 137° |
| 2026-05-09 03:23 | 32.67690 | -85.98548 | 48970 ft | 538 kts | 137° |
| 2026-05-09 03:24 | 32.63021 | -85.91647 | 48987 ft | 538 kts | 136° |
| 2026-05-09 03:24 | 32.58343 | -85.84738 | 48994 ft | 538 kts | 137° |
| 2026-05-09 03:25 | 32.53644 | -85.77815 | 48998 ft | 538 kts | 137° |
| 2026-05-09 03:25 | 32.48982 | -85.70959 | 48987 ft | 538 kts | 136° |
| 2026-05-09 03:26 | 32.44298 | -85.64083 | 48992 ft | 538 kts | 137° |
| 2026-05-09 03:26 | 32.39595 | -85.57189 | 49000 ft | 536 kts | 137° |
| 2026-05-09 03:27 | 32.34918 | -85.50356 | 48995 ft | 537 kts | 136° |
| 2026-05-09 03:27 | 32.30209 | -85.43476 | 49005 ft | 539 kts | 136° |
| 2026-05-09 03:28 | 32.25508 | -85.36627 | 49001 ft | 538 kts | 136° |
| 2026-05-09 03:28 | 32.20666 | -85.29820 | 48990 ft | 532 kts | 141° |
| 2026-05-09 03:29 | 32.15742 | -85.23341 | 48982 ft | 531 kts | 140° |
| 2026-05-09 03:29 | 32.10806 | -85.16831 | 48985 ft | 532 kts | 140° |
| 2026-05-09 03:30 | 32.05881 | -85.10348 | 48995 ft | 533 kts | 140° |
| 2026-05-09 03:30 | 32.00928 | -85.03841 | 49000 ft | 533 kts | 140° |
| 2026-05-09 03:31 | 31.95995 | -84.97368 | 49001 ft | 533 kts | 140° |
| 2026-05-09 03:31 | 31.91009 | -84.90835 | 48996 ft | 533 kts | 140° |
| 2026-05-09 03:32 | 31.86065 | -84.84373 | 48994 ft | 531 kts | 140° |
| 2026-05-09 03:32 | 31.81124 | -84.77925 | 49009 ft | 533 kts | 140° |
| 2026-05-09 03:33 | 31.76152 | -84.71446 | 48994 ft | 533 kts | 140° |
| 2026-05-09 03:33 | 31.71199 | -84.65003 | 48999 ft | 533 kts | 140° |
| 2026-05-09 03:34 | 31.66224 | -84.58543 | 48995 ft | 532 kts | 140° |
| 2026-05-09 03:34 | 31.61278 | -84.52134 | 48993 ft | 531 kts | 140° |
| 2026-05-09 03:35 | 31.56332 | -84.45732 | 49000 ft | 530 kts | 139° |
| 2026-05-09 03:35 | 31.51384 | -84.39340 | 49014 ft | 531 kts | 140° |
| 2026-05-09 03:36 | 31.46399 | -84.32912 | 48993 ft | 531 kts | 140° |
| 2026-05-09 03:36 | 31.41423 | -84.26507 | 48987 ft | 529 kts | 140° |
| 2026-05-09 03:37 | 31.36473 | -84.20146 | 48982 ft | 530 kts | 140° |
| 2026-05-09 03:37 | 31.31511 | -84.13777 | 49000 ft | 529 kts | 140° |
| 2026-05-09 03:38 | 31.26569 | -84.07449 | 48979 ft | 526 kts | 140° |
| 2026-05-09 03:38 | 31.21607 | -84.01105 | 48984 ft | 528 kts | 140° |
| 2026-05-09 03:39 | 31.16662 | -83.94792 | 49004 ft | 530 kts | 140° |
| 2026-05-09 03:39 | 31.11694 | -83.88459 | 49018 ft | 529 kts | 140° |
| 2026-05-09 03:40 | 31.06750 | -83.82170 | 49015 ft | 526 kts | 140° |
| 2026-05-09 03:40 | 31.01789 | -83.75865 | 49027 ft | 527 kts | 140° |
| 2026-05-09 03:41 | 30.96824 | -83.69575 | 49018 ft | 528 kts | 139° |
| 2026-05-09 03:41 | 30.91866 | -83.63295 | 49012 ft | 529 kts | 140° |
| 2026-05-09 03:42 | 30.86906 | -83.57024 | 49008 ft | 528 kts | 140° |
| 2026-05-09 03:42 | 30.81928 | -83.50744 | 49006 ft | 526 kts | 140° |
| 2026-05-09 03:43 | 30.76987 | -83.44522 | 49010 ft | 527 kts | 140° |
| 2026-05-09 03:43 | 30.72011 | -83.38261 | 49004 ft | 527 kts | 140° |
| 2026-05-09 03:44 | 30.67044 | -83.32024 | 48984 ft | 527 kts | 140° |
| 2026-05-09 03:44 | 30.62060 | -83.25776 | 48984 ft | 526 kts | 140° |
| 2026-05-09 03:45 | 30.57085 | -83.19547 | 48995 ft | 525 kts | 140° |
| 2026-05-09 03:45 | 30.52110 | -83.13333 | 48995 ft | 525 kts | 140° |
| 2026-05-09 03:46 | 30.47145 | -83.07137 | 49003 ft | 525 kts | 140° |
| 2026-05-09 03:46 | 30.42179 | -83.00954 | 48995 ft | 526 kts | 140° |
| 2026-05-09 03:47 | 30.37188 | -82.94746 | 49009 ft | 527 kts | 140° |
| 2026-05-09 03:47 | 30.32173 | -82.88522 | 49003 ft | 526 kts | 140° |
| 2026-05-09 03:48 | 30.27208 | -82.82365 | 49013 ft | 525 kts | 139° |
| 2026-05-09 03:48 | 30.22244 | -82.76222 | 49023 ft | 524 kts | 140° |
| 2026-05-09 03:49 | 30.17250 | -82.70053 | 49032 ft | 526 kts | 139° |
| 2026-05-09 03:49 | 30.12265 | -82.63902 | 49042 ft | 526 kts | 139° |
| 2026-05-09 03:50 | 30.07251 | -82.57728 | 49038 ft | 527 kts | 139° |
| 2026-05-09 03:50 | 30.02265 | -82.51595 | 49022 ft | 526 kts | 139° |
| 2026-05-09 03:51 | 29.97268 | -82.45457 | 49025 ft | 525 kts | 139° |
| 2026-05-09 03:51 | 29.92287 | -82.39352 | 49025 ft | 524 kts | 140° |
| 2026-05-09 03:52 | 29.87275 | -82.33218 | 49007 ft | 524 kts | 140° |
| 2026-05-09 03:52 | 29.82269 | -82.27101 | 49004 ft | 523 kts | 140° |
| 2026-05-09 03:53 | 29.77295 | -82.21032 | 49033 ft | 523 kts | 140° |
| 2026-05-09 03:53 | 29.72287 | -82.14930 | 49017 ft | 523 kts | 140° |
| 2026-05-09 03:54 | 29.67122 | -82.09093 | 49011 ft | 521 kts | 143° |
| 2026-05-09 03:54 | 29.61943 | -82.03329 | 49005 ft | 522 kts | 142° |
| 2026-05-09 03:55 | 29.56743 | -81.97546 | 49007 ft | 520 kts | 142° |
| 2026-05-09 03:55 | 29.51549 | -81.91775 | 49004 ft | 519 kts | 143° |
| 2026-05-09 03:56 | 29.46356 | -81.86017 | 49013 ft | 519 kts | 143° |
| 2026-05-09 03:56 | 29.41165 | -81.80272 | 49013 ft | 520 kts | 142° |
| 2026-05-09 03:57 | 29.35963 | -81.74520 | 49003 ft | 521 kts | 142° |
| 2026-05-09 03:57 | 29.30787 | -81.68806 | 49018 ft | 520 kts | 142° |
| 2026-05-09 03:58 | 29.25569 | -81.63053 | 49008 ft | 518 kts | 142° |
| 2026-05-09 03:58 | 29.20371 | -81.57333 | 49019 ft | 518 kts | 142° |
| 2026-05-09 03:59 | 29.15180 | -81.51627 | 49022 ft | 519 kts | 142° |
| 2026-05-09 03:59 | 29.09993 | -81.45935 | 49038 ft | 518 kts | 142° |
| 2026-05-09 04:00 | 29.04783 | -81.40226 | 49035 ft | 518 kts | 142° |
| 2026-05-09 04:00 | 28.99599 | -81.34554 | 49034 ft | 518 kts | 142° |
| 2026-05-09 04:01 | 28.94413 | -81.28889 | 49005 ft | 515 kts | 142° |
| 2026-05-09 04:01 | 28.89226 | -81.23229 | 49017 ft | 516 kts | 143° |
| 2026-05-09 04:02 | 28.84066 | -81.17608 | 49013 ft | 516 kts | 142° |
| 2026-05-09 04:02 | 28.78877 | -81.11965 | 49003 ft | 515 kts | 142° |
| 2026-05-09 04:03 | 28.73697 | -81.06338 | 49014 ft | 515 kts | 142° |
| 2026-05-09 04:03 | 28.68514 | -81.00716 | 49013 ft | 516 kts | 142° |
| 2026-05-09 04:04 | 28.63323 | -80.95094 | 48999 ft | 514 kts | 142° |
| 2026-05-09 04:04 | 28.58140 | -80.89487 | 49028 ft | 513 kts | 142° |
| 2026-05-09 04:05 | 28.52961 | -80.83896 | 49032 ft | 514 kts | 142° |
| 2026-05-09 04:05 | 28.47802 | -80.78332 | 49025 ft | 514 kts | 142° |
| 2026-05-09 04:06 | 28.42614 | -80.72743 | 49015 ft | 512 kts | 142° |
| 2026-05-09 04:06 | 28.37468 | -80.67210 | 49026 ft | 513 kts | 142° |
| 2026-05-09 04:07 | 28.32274 | -80.61631 | 49029 ft | 513 kts | 142° |
| 2026-05-09 04:07 | 28.27109 | -80.56093 | 49011 ft | 513 kts | 142° |
| 2026-05-09 04:08 | 28.21925 | -80.50541 | 48988 ft | 513 kts | 142° |
| 2026-05-09 04:08 | 28.16733 | -80.44988 | 49001 ft | 513 kts | 142° |
| 2026-05-09 04:09 | 28.11577 | -80.39483 | 48991 ft | 513 kts | 142° |
| 2026-05-09 04:09 | 28.06391 | -80.33952 | 49001 ft | 513 kts | 142° |
| 2026-05-09 04:10 | 28.01197 | -80.28420 | 48984 ft | 511 kts | 142° |
| 2026-05-09 04:10 | 27.96012 | -80.22908 | 49025 ft | 512 kts | 142° |
| 2026-05-09 04:11 | 27.90854 | -80.17429 | 49001 ft | 511 kts | 142° |
| 2026-05-09 04:11 | 27.85645 | -80.11905 | 49002 ft | 511 kts | 142° |
| 2026-05-09 04:12 | 27.80473 | -80.06428 | 48999 ft | 511 kts | 142° |
| 2026-05-09 04:12 | 27.75288 | -80.00944 | 48999 ft | 510 kts | 142° |
| 2026-05-09 04:13 | 27.70132 | -79.95499 | 49004 ft | 510 kts | 141° |
| 2026-05-09 04:13 | 27.64924 | -79.90005 | 49000 ft | 510 kts | 142° |
| 2026-05-09 04:14 | 27.59749 | -79.84554 | 48997 ft | 509 kts | 141° |
| 2026-05-09 04:14 | 27.54578 | -79.79116 | 48998 ft | 510 kts | 141° |
| 2026-05-09 04:15 | 27.49422 | -79.73699 | 48991 ft | 509 kts | 141° |
| 2026-05-09 04:15 | 27.44224 | -79.68247 | 48995 ft | 510 kts | 141° |
| 2026-05-09 04:16 | 27.39032 | -79.62807 | 48999 ft | 509 kts | 141° |
| 2026-05-09 04:16 | 27.33867 | -79.57403 | 48996 ft | 508 kts | 141° |
| 2026-05-09 04:17 | 27.28695 | -79.52000 | 48995 ft | 507 kts | 141° |
| 2026-05-09 04:17 | 27.23526 | -79.46606 | 48991 ft | 508 kts | 141° |
| 2026-05-09 04:18 | 27.18345 | -79.41208 | 48998 ft | 508 kts | 141° |
| 2026-05-09 04:18 | 27.13173 | -79.35825 | 48980 ft | 508 kts | 141° |
| 2026-05-09 04:19 | 27.08020 | -79.30469 | 48982 ft | 507 kts | 141° |
| 2026-05-09 04:19 | 27.02840 | -79.25093 | 48988 ft | 507 kts | 141° |
| 2026-05-09 04:20 | 26.97751 | -79.19640 | 48989 ft | 508 kts | 136° |
| 2026-05-09 04:20 | 26.92919 | -79.13862 | 48988 ft | 509 kts | 137° |
| 2026-05-09 04:21 | 26.88064 | -79.08112 | 49001 ft | 510 kts | 137° |
| 2026-05-09 04:22 | 26.80732 | -78.99447 | 48995 ft | 513 kts | 137° |
| 2026-05-09 04:22 | 26.75845 | -78.93680 | 48984 ft | 512 kts | 137° |
| 2026-05-09 04:23 | 26.70926 | -78.87884 | 48988 ft | 511 kts | 137° |
| 2026-05-09 04:23 | 26.66069 | -78.82169 | 48995 ft | 510 kts | 137° |
| 2026-05-09 04:24 | 26.61163 | -78.76403 | 49007 ft | 510 kts | 137° |
| 2026-05-09 04:24 | 26.56284 | -78.70686 | 49007 ft | 510 kts | 139° |
| 2026-05-09 04:25 | 26.50753 | -78.65821 | 49001 ft | 505 kts | 147° |
| 2026-05-09 04:25 | 26.45119 | -78.61145 | 49014 ft | 505 kts | 147° |
| 2026-05-09 04:26 | 26.39498 | -78.56483 | 49012 ft | 504 kts | 147° |
| 2026-05-09 04:26 | 26.33913 | -78.51858 | 49014 ft | 503 kts | 147° |
| 2026-05-09 04:27 | 26.28270 | -78.47190 | 49014 ft | 503 kts | 147° |
| 2026-05-09 04:27 | 26.22680 | -78.42570 | 49014 ft | 502 kts | 147° |
| 2026-05-09 04:28 | 26.17065 | -78.37938 | 49014 ft | 502 kts | 147° |
| 2026-05-09 04:28 | 26.11549 | -78.33160 | 49002 ft | 505 kts | 140° |
| 2026-05-09 04:29 | 26.06494 | -78.27678 | 49007 ft | 505 kts | 139° |
| 2026-05-09 04:29 | 26.01452 | -78.22254 | 49006 ft | 506 kts | 139° |
| 2026-05-09 04:30 | 25.96416 | -78.16850 | 49008 ft | 506 kts | 139° |
| 2026-05-09 04:30 | 25.91358 | -78.11428 | 49007 ft | 505 kts | 139° |
| 2026-05-09 04:31 | 25.86300 | -78.06014 | 49004 ft | 505 kts | 139° |
| 2026-05-09 04:31 | 25.81251 | -78.00615 | 49004 ft | 505 kts | 139° |
| 2026-05-09 04:32 | 25.76209 | -77.95231 | 49008 ft | 505 kts | 139° |
| 2026-05-09 04:32 | 25.71154 | -77.89838 | 49009 ft | 505 kts | 139° |
| 2026-05-09 04:33 | 25.66083 | -77.84438 | 49008 ft | 505 kts | 139° |
| 2026-05-09 04:33 | 25.61017 | -77.79049 | 49011 ft | 504 kts | 139° |
| 2026-05-09 04:34 | 25.55973 | -77.73688 | 49011 ft | 504 kts | 139° |
| 2026-05-09 04:34 | 25.50899 | -77.68304 | 48979 ft | 504 kts | 139° |
| 2026-05-09 04:34 | 25.48332 | -77.65583 | 47598 ft | 523 kts | 139° |
| 2026-05-09 04:35 | 25.45701 | -77.62794 | 46144 ft | 530 kts | 139° |
| 2026-05-09 04:35 | 25.43044 | -77.59982 | 44539 ft | 535 kts | 139° |
| 2026-05-09 04:35 | 25.40375 | -77.57156 | 43720 ft | 527 kts | 138° |
| 2026-05-09 04:35 | 25.37777 | -77.54406 | 43113 ft | 517 kts | 138° |
| 2026-05-09 04:36 | 25.35197 | -77.51680 | 42560 ft | 506 kts | 138° |
| 2026-05-09 04:36 | 25.32683 | -77.49026 | 42011 ft | 501 kts | 138° |
| 2026-05-09 04:36 | 25.30159 | -77.46362 | 41466 ft | 503 kts | 138° |
| 2026-05-09 04:36 | 25.27592 | -77.43653 | 40909 ft | 506 kts | 138° |
| 2026-05-09 04:37 | 25.25005 | -77.40926 | 40338 ft | 508 kts | 138° |
| 2026-05-09 04:37 | 25.22389 | -77.38170 | 39778 ft | 508 kts | 138° |
| 2026-05-09 04:37 | 25.19779 | -77.35421 | 39220 ft | 508 kts | 138° |
| 2026-05-09 04:37 | 25.17211 | -77.32719 | 38651 ft | 508 kts | 138° |
| 2026-05-09 04:38 | 25.14598 | -77.29971 | 38105 ft | 508 kts | 138° |
| 2026-05-09 04:38 | 25.12060 | -77.27302 | 37554 ft | 508 kts | 138° |
| 2026-05-09 04:38 | 25.09491 | -77.24603 | 36991 ft | 509 kts | 138° |
| 2026-05-09 04:38 | 25.06925 | -77.21909 | 36431 ft | 510 kts | 138° |
| 2026-05-09 04:39 | 25.04349 | -77.19207 | 35863 ft | 510 kts | 138° |
| 2026-05-09 04:39 | 25.01788 | -77.16522 | 35297 ft | 505 kts | 138° |
| 2026-05-09 04:39 | 24.99236 | -77.13847 | 34741 ft | 504 kts | 138° |
| 2026-05-09 04:39 | 24.96714 | -77.11204 | 34181 ft | 498 kts | 138° |
| 2026-05-09 04:40 | 24.94204 | -77.08579 | 33635 ft | 496 kts | 139° |
| 2026-05-09 04:40 | 24.91701 | -77.05962 | 33091 ft | 497 kts | 139° |
| 2026-05-09 04:40 | 24.89188 | -77.03334 | 32572 ft | 500 kts | 139° |
| 2026-05-09 04:40 | 24.86639 | -77.00671 | 32037 ft | 502 kts | 139° |
| 2026-05-09 04:41 | 24.84126 | -76.98047 | 31491 ft | 504 kts | 138° |
| 2026-05-09 04:41 | 24.81583 | -76.95393 | 30934 ft | 504 kts | 138° |
| 2026-05-09 04:41 | 24.79026 | -76.92727 | 30379 ft | 509 kts | 138° |
| 2026-05-09 04:41 | 24.76462 | -76.90054 | 29813 ft | 507 kts | 138° |
| 2026-05-09 04:42 | 24.73914 | -76.87399 | 29251 ft | 502 kts | 138° |
| 2026-05-09 04:42 | 24.71370 | -76.84750 | 28695 ft | 497 kts | 138° |
| 2026-05-09 04:42 | 24.68879 | -76.82159 | 28151 ft | 493 kts | 138° |
| 2026-05-09 04:42 | 24.66414 | -76.79596 | 27614 ft | 488 kts | 138° |
| 2026-05-09 04:43 | 24.63938 | -76.77023 | 27070 ft | 485 kts | 138° |
| 2026-05-09 04:43 | 24.61519 | -76.74510 | 26540 ft | 481 kts | 138° |
| 2026-05-09 04:43 | 24.59085 | -76.71984 | 26006 ft | 477 kts | 138° |
| 2026-05-09 04:43 | 24.56695 | -76.69504 | 25483 ft | 474 kts | 137° |
| 2026-05-09 04:44 | 24.54287 | -76.67007 | 24958 ft | 470 kts | 137° |
| 2026-05-09 04:44 | 24.51943 | -76.64578 | 24446 ft | 466 kts | 137° |
| 2026-05-09 04:44 | 24.49596 | -76.62147 | 23934 ft | 463 kts | 137° |
| 2026-05-09 04:44 | 24.47262 | -76.59731 | 23428 ft | 459 kts | 137° |
| 2026-05-09 04:45 | 24.44939 | -76.57327 | 22921 ft | 455 kts | 137° |
| 2026-05-09 04:45 | 24.42652 | -76.54962 | 22422 ft | 451 kts | 137° |
| 2026-05-09 04:45 | 24.40387 | -76.52621 | 21947 ft | 447 kts | 137° |
| 2026-05-09 04:45 | 24.38117 | -76.50276 | 21453 ft | 442 kts | 137° |
| 2026-05-09 04:46 | 24.35897 | -76.47984 | 20971 ft | 438 kts | 137° |
| 2026-05-09 04:46 | 24.33704 | -76.45721 | 20489 ft | 433 kts | 137° |
| 2026-05-09 04:46 | 24.31537 | -76.43484 | 20017 ft | 429 kts | 136° |
| 2026-05-09 04:46 | 24.29369 | -76.41249 | 19541 ft | 424 kts | 136° |
| 2026-05-09 04:47 | 24.27226 | -76.39041 | 19072 ft | 420 kts | 136° |
| 2026-05-09 04:47 | 24.25104 | -76.36856 | 18608 ft | 414 kts | 136° |
| 2026-05-09 04:47 | 24.23006 | -76.34695 | 18149 ft | 411 kts | 136° |
| 2026-05-09 04:47 | 24.20933 | -76.32562 | 17648 ft | 407 kts | 136° |
| 2026-05-09 04:48 | 24.18864 | -76.30434 | 17163 ft | 402 kts | 136° |
| 2026-05-09 04:48 | 24.16836 | -76.28349 | 16711 ft | 397 kts | 136° |
| 2026-05-09 04:48 | 24.14827 | -76.26284 | 16272 ft | 394 kts | 136° |
| 2026-05-09 04:48 | 24.12841 | -76.24245 | 15840 ft | 391 kts | 136° |
| 2026-05-09 04:49 | 24.10860 | -76.22211 | 15407 ft | 387 kts | 136° |
| 2026-05-09 04:49 | 24.08910 | -76.20211 | 14978 ft | 384 kts | 136° |
| 2026-05-09 04:49 | 24.06990 | -76.18240 | 14562 ft | 380 kts | 136° |
| 2026-05-09 04:49 | 24.05064 | -76.16265 | 14141 ft | 376 kts | 136° |
| 2026-05-09 04:50 | 24.03173 | -76.14327 | 13729 ft | 372 kts | 136° |
| 2026-05-09 04:50 | 24.01273 | -76.12381 | 13315 ft | 369 kts | 136° |
| 2026-05-09 04:50 | 23.99428 | -76.10492 | 12915 ft | 366 kts | 135° |
| 2026-05-09 04:50 | 23.97580 | -76.08601 | 12512 ft | 363 kts | 135° |
| 2026-05-09 04:51 | 23.95730 | -76.06707 | 12111 ft | 361 kts | 136° |
| 2026-05-09 04:51 | 23.93921 | -76.04856 | 11716 ft | 358 kts | 135° |
| 2026-05-09 04:51 | 23.92098 | -76.02992 | 11317 ft | 356 kts | 136° |
| 2026-05-09 04:51 | 23.90299 | -76.01154 | 10923 ft | 353 kts | 136° |
| 2026-05-09 04:52 | 23.88524 | -75.99340 | 10532 ft | 343 kts | 136° |
| 2026-05-09 04:52 | 23.86812 | -75.97592 | 10156 ft | 331 kts | 136° |
| 2026-05-09 04:52 | 23.85163 | -75.95909 | 9795 ft | 320 kts | 136° |
| 2026-05-09 04:52 | 23.83543 | -75.94257 | 9442 ft | 310 kts | 136° |
| 2026-05-09 04:53 | 23.81998 | -75.92680 | 9108 ft | 302 kts | 136° |
| 2026-05-09 04:53 | 23.80472 | -75.91125 | 8777 ft | 294 kts | 136° |
| 2026-05-09 04:53 | 23.79001 | -75.89625 | 8459 ft | 286 kts | 136° |
| 2026-05-09 04:53 | 23.77572 | -75.88169 | 8149 ft | 279 kts | 136° |
| 2026-05-09 04:54 | 23.76161 | -75.86731 | 7843 ft | 276 kts | 136° |
| 2026-05-09 04:54 | 23.74762 | -75.85306 | 7537 ft | 275 kts | 136° |
| 2026-05-09 04:54 | 23.73369 | -75.83888 | 7236 ft | 275 kts | 136° |
| 2026-05-09 04:54 | 23.71967 | -75.82460 | 6932 ft | 272 kts | 136° |
| 2026-05-09 04:55 | 23.70581 | -75.81050 | 6630 ft | 271 kts | 136° |
| 2026-05-09 04:55 | 23.69215 | -75.79661 | 6333 ft | 270 kts | 136° |
| 2026-05-09 04:55 | 23.67835 | -75.78258 | 6031 ft | 269 kts | 136° |
| 2026-05-09 04:55 | 23.66462 | -75.76862 | 5736 ft | 268 kts | 136° |
| 2026-05-09 04:56 | 23.65113 | -75.75492 | 5380 ft | 267 kts | 135° |
| 2026-05-09 04:56 | 23.63754 | -75.74112 | 5017 ft | 265 kts | 135° |
| 2026-05-09 04:56 | 23.62414 | -75.72751 | 4655 ft | 263 kts | 135° |
| 2026-05-09 04:56 | 23.61072 | -75.71388 | 4298 ft | 261 kts | 135° |
| 2026-05-09 04:57 | 23.59758 | -75.70055 | 4008 ft | 259 kts | 135° |
| 2026-05-09 04:57 | 23.58439 | -75.68715 | 3717 ft | 257 kts | 135° |
| 2026-05-09 04:57 | 23.57150 | -75.67408 | 3429 ft | 254 kts | 135° |
| 2026-05-09 04:57 | 23.55868 | -75.66108 | 3135 ft | 249 kts | 135° |
| 2026-05-09 04:58 | 23.54612 | -75.64836 | 2942 ft | 240 kts | 134° |
| 2026-05-09 04:58 | 23.53417 | -75.63625 | 2926 ft | 225 kts | 134° |
| 2026-05-09 04:58 | 23.52297 | -75.62490 | 2748 ft | 219 kts | 134° |
| 2026-05-09 04:58 | 23.51182 | -75.61381 | 2553 ft | 214 kts | 140° |
| 2026-05-09 04:59 | 23.49789 | -75.60916 | 2392 ft | 209 kts | 175° |
| 2026-05-09 04:59 | 23.48362 | -75.60854 | 2201 ft | 201 kts | 172° |
| 2026-05-09 04:59 | 23.47062 | -75.60491 | 1974 ft | 186 kts | 141° |
| 2026-05-09 04:59 | 23.46194 | -75.59559 | 1858 ft | 163 kts | 129° |
| 2026-05-09 05:00 | 23.45495 | -75.58752 | 1666 ft | 130 kts | 131° |
| 2026-05-09 05:00 | 23.44894 | -75.58112 | 1386 ft | 118 kts | 131° |
| 2026-05-09 05:00 | 23.44339 | -75.57524 | 1323 ft | 108 kts | 131° |
| 2026-05-09 05:00 | 23.43782 | -75.56937 | 1349 ft | 112 kts | 131° |
| 2026-05-09 05:01 | 23.43210 | -75.56335 | 1345 ft | 113 kts | 131° |
| 2026-05-09 05:01 | 23.42639 | -75.55733 | 1338 ft | 115 kts | 131° |
| 2026-05-09 05:01 | 23.42066 | -75.55125 | 1342 ft | 115 kts | 131° |
| 2026-05-09 05:01 | 23.41512 | -75.54487 | 1180 ft | 116 kts | 127° |
| 2026-05-09 05:02 | 23.41056 | -75.53803 | 794 ft | 112 kts | 118° |
| 2026-05-09 05:02 | 23.40741 | -75.53067 | 466 ft | 104 kts | 110° |
| 2026-05-09 05:02 | 23.40484 | -75.52307 | 318 ft | 106 kts | 107° |
| 2026-05-09 05:02 | 23.40272 | -75.51542 | 198 ft | 107 kts | 104° |
| 2026-05-09 05:03 | 23.40057 | -75.50763 | 79 ft | 109 kts | 105° |
| 2026-05-09 05:03 | 23.39840 | -75.50009 | 17 ft | 89 kts | 106° |
| 2026-05-09 05:03 | 23.39713 | -75.49567 | 17 ft | 43 kts | 107° |
| 2026-05-09 05:03 | 23.39644 | -75.49332 | 17 ft | 26 kts | 107° |
| 2026-05-09 05:04 | 23.39597 | -75.49164 | 17 ft | 12 kts | 107° |
| 2026-05-09 05:04 | 23.39574 | -75.49088 | 17 ft | 5 kts | 117° |
| 2026-05-09 05:04 | 23.39544 | -75.49075 | 17 ft | 4 kts | 186° |
| 2026-05-09 05:04 | 23.39515 | -75.49085 | 17 ft | 4 kts | 201° |
| 2026-05-09 05:05 | 23.39491 | -75.49085 | 17 ft | 3 kts | 148° |
| 2026-05-09 05:05 | 23.39480 | -75.49068 | 17 ft | 1 kts | 126° |
| 2026-05-09 05:05 | 23.39476 | -75.49066 | 17 ft | 0 kts | 162° |
| 2026-05-09 05:05 | 23.39469 | -75.49071 | 17 ft | 3 kts | 223° |
| 2026-05-09 05:06 | 23.39469 | -75.49078 | 17 ft | 0 kts | 287° |
| 2026-05-09 05:16 | 23.39469 | -75.49079 | 17 ft | 0 kts | 287° |
| 2026-05-09 05:16 | 23.39467 | -75.49073 | 17 ft | 1 kts | 286° |
| 2026-05-09 05:16 | 23.39466 | -75.49068 | 17 ft | 0 kts | 286° |